createdAt,value
2022-10-07T00:02:02.099Z,15.44
2022-10-07T00:04:34.298Z,15.44
2022-10-07T00:07:06.387Z,15.45
2022-10-07T00:09:40.726Z,15.46
2022-10-07T00:12:12.952Z,15.46
2022-10-07T00:14:45.209Z,15.45
2022-10-07T00:17:17.437Z,15.44
2022-10-07T00:19:49.791Z,15.44
2022-10-07T00:22:21.853Z,15.44
2022-10-07T00:24:54.021Z,15.45
2022-10-07T00:27:26.083Z,15.45
2022-10-07T00:29:58.188Z,15.44
2022-10-07T00:32:30.374Z,15.41
2022-10-07T00:35:02.433Z,15.39
2022-10-07T00:37:36.277Z,15.36
2022-10-07T00:40:09.474Z,15.36
2022-10-07T00:42:43.049Z,15.33
2022-10-07T00:45:21.344Z,15.32
2022-10-07T00:47:53.655Z,15.30
2022-10-07T00:50:29.540Z,15.26
2022-10-07T00:53:03.817Z,15.24
2022-10-07T00:55:36.573Z,15.22
2022-10-07T00:58:09.906Z,15.18
2022-10-07T01:00:43.296Z,15.16
2022-10-07T01:03:15.967Z,15.15
2022-10-07T01:05:48.217Z,15.14
2022-10-07T01:08:20.528Z,15.14
2022-10-07T01:11:00.016Z,15.11
2022-10-07T01:13:36.285Z,15.08
2022-10-07T01:16:13.749Z,15.04
2022-10-07T01:18:52.906Z,15.02
2022-10-07T01:21:34.701Z,15.00
2022-10-07T01:24:16.166Z,14.99
2022-10-07T01:27:01.947Z,14.97
2022-10-07T01:29:39.247Z,14.95
2022-10-07T01:32:17.534Z,14.93
2022-10-07T01:34:50.099Z,14.91
2022-10-07T01:37:20.571Z,14.89
2022-10-07T01:39:54.896Z,14.83
2022-10-07T01:42:28.088Z,14.84
2022-10-07T01:45:03.203Z,14.84
2022-10-07T01:47:35.290Z,14.83
2022-10-07T01:50:12.109Z,14.84
2022-10-07T01:52:56.246Z,14.81
2022-10-07T01:55:39.136Z,14.80
2022-10-07T01:58:20.425Z,14.78
2022-10-07T02:00:57.389Z,14.71
2022-10-07T02:03:40.212Z,14.71
2022-10-07T02:06:11.999Z,14.71
2022-10-07T02:08:49.000Z,14.66
2022-10-07T02:11:24.450Z,14.64
2022-10-07T02:14:02.423Z,14.64
2022-10-07T02:16:39.267Z,14.65
2022-10-07T02:19:14.399Z,14.66
2022-10-07T02:21:50.854Z,14.65
2022-10-07T02:24:25.545Z,14.64
2022-10-07T02:26:58.368Z,14.63
2022-10-07T02:29:34.629Z,14.56
2022-10-07T02:32:09.762Z,14.50
2022-10-07T02:34:43.608Z,14.45
2022-10-07T02:37:19.232Z,14.43
2022-10-07T02:39:51.442Z,14.40
2022-10-07T02:42:27.954Z,14.38
2022-10-07T02:45:02.886Z,14.37
2022-10-07T02:47:40.086Z,14.36
2022-10-07T02:50:14.897Z,14.34
2022-10-07T02:52:48.257Z,14.29
2022-10-07T02:55:23.406Z,14.26
2022-10-07T02:57:59.246Z,14.22
2022-10-07T03:00:33.109Z,14.22
2022-10-07T03:03:07.080Z,14.22
2022-10-07T03:05:39.840Z,14.23
2022-10-07T03:08:12.841Z,14.22
2022-10-07T03:10:45.094Z,14.21
2022-10-07T03:13:17.239Z,14.22
2022-10-07T03:15:49.361Z,14.23
2022-10-07T03:18:28.694Z,14.22
2022-10-07T03:21:02.166Z,14.22
2022-10-07T03:23:34.506Z,14.23
2022-10-07T03:26:06.855Z,14.21
2022-10-07T03:28:39.057Z,14.14
2022-10-07T03:31:13.192Z,14.10
2022-10-07T03:33:45.720Z,14.08
2022-10-07T03:36:17.811Z,14.07
2022-10-07T03:38:49.948Z,14.05
2022-10-07T03:41:22.483Z,14.04
2022-10-07T03:43:57.578Z,14.04
2022-10-07T03:46:29.785Z,14.02
2022-10-07T03:49:02.423Z,13.99
2022-10-07T03:51:32.889Z,13.97
2022-10-07T03:54:05.216Z,13.95
2022-10-07T03:56:37.337Z,13.97
2022-10-07T03:59:09.584Z,13.96
2022-10-07T04:01:41.753Z,13.96
2022-10-07T04:04:13.957Z,13.97
2022-10-07T04:06:46.083Z,13.98
2022-10-07T04:09:18.412Z,13.97
2022-10-07T04:11:50.489Z,13.96
2022-10-07T04:14:22.554Z,13.96
2022-10-07T04:16:54.630Z,13.96
2022-10-07T04:19:26.696Z,13.97
2022-10-07T04:21:58.812Z,13.97
2022-10-07T04:24:30.994Z,13.97
2022-10-07T04:27:05.263Z,13.97
2022-10-07T04:29:39.262Z,13.99
2022-10-07T04:32:11.533Z,14.01
2022-10-07T04:34:43.607Z,14.00
2022-10-07T04:37:15.704Z,13.96
2022-10-07T04:40:00.018Z,13.95
2022-10-07T04:42:50.469Z,13.94
2022-10-07T04:45:22.508Z,13.96
2022-10-07T04:47:54.558Z,13.99
2022-10-07T04:50:26.860Z,13.99
2022-10-07T04:52:58.954Z,13.98
2022-10-07T04:55:31.068Z,13.96
2022-10-07T04:58:03.124Z,13.98
2022-10-07T05:00:36.019Z,14.04
2022-10-07T05:03:08.298Z,14.09
2022-10-07T05:05:44.144Z,14.16
2022-10-07T05:08:17.104Z,14.20
2022-10-07T05:10:49.576Z,14.24
2022-10-07T05:13:22.639Z,14.26
2022-10-07T05:15:56.633Z,14.26
2022-10-07T05:18:30.398Z,14.28
2022-10-07T05:21:05.005Z,14.32
2022-10-07T05:23:37.630Z,14.36
2022-10-07T05:26:11.228Z,14.40
2022-10-07T05:28:45.578Z,14.41
2022-10-07T05:31:18.206Z,14.45
2022-10-07T05:33:49.696Z,14.50
2022-10-07T05:36:21.772Z,14.52
2022-10-07T05:38:58.307Z,14.56
2022-10-07T05:41:30.520Z,14.60
2022-10-07T05:44:02.669Z,14.64
2022-10-07T05:46:34.745Z,14.66
2022-10-07T05:49:06.938Z,14.66
2022-10-07T05:51:39.061Z,14.68
2022-10-07T05:54:11.675Z,14.72
2022-10-07T05:56:42.115Z,14.75
2022-10-07T05:59:14.245Z,14.73
2022-10-07T06:01:46.370Z,14.71
2022-10-07T06:04:19.950Z,14.76
2022-10-07T06:06:52.021Z,14.85
2022-10-07T06:09:41.794Z,14.98
2022-10-07T06:12:31.528Z,15.16
2022-10-07T06:15:03.683Z,15.36
2022-10-07T06:17:35.850Z,15.54
2022-10-07T06:20:09.283Z,15.66
2022-10-07T06:22:43.065Z,15.74
2022-10-07T06:25:15.192Z,15.78
2022-10-07T06:27:52.801Z,15.88
2022-10-07T06:30:26.585Z,16.01
2022-10-07T06:32:58.655Z,16.10
2022-10-07T06:35:30.708Z,16.17
2022-10-07T06:38:02.745Z,16.26
2022-10-07T06:40:34.993Z,16.30
2022-10-07T06:43:07.173Z,16.28
2022-10-07T06:45:39.282Z,16.26
2022-10-07T06:48:11.357Z,16.18
2022-10-07T06:50:52.828Z,16.13
2022-10-07T06:53:25.916Z,16.10
2022-10-07T06:55:58.421Z,16.05
2022-10-07T06:58:30.661Z,16.07
2022-10-07T07:01:01.461Z,16.05
2022-10-07T07:03:33.845Z,16.03
2022-10-07T07:06:07.926Z,16.10
2022-10-07T07:08:41.392Z,16.14
2022-10-07T07:11:32.426Z,16.20
2022-10-07T07:14:05.075Z,16.25
2022-10-07T07:16:35.689Z,16.31
2022-10-07T07:19:09.756Z,16.33
2022-10-07T07:21:42.076Z,16.38
2022-10-07T07:24:15.440Z,16.45
2022-10-07T07:26:47.540Z,16.54
2022-10-07T07:29:20.353Z,16.62
2022-10-07T07:31:52.402Z,16.70
2022-10-07T07:34:24.472Z,16.79
2022-10-07T07:36:57.252Z,16.89
2022-10-07T07:39:29.317Z,16.96
2022-10-07T07:42:01.453Z,17.05
2022-10-07T07:44:34.967Z,17.16
2022-10-07T07:47:08.865Z,17.30
2022-10-07T07:49:40.940Z,17.43
2022-10-07T07:52:13.139Z,17.57
2022-10-07T07:54:45.232Z,17.68
2022-10-07T07:57:19.728Z,17.77
2022-10-07T07:59:51.822Z,17.88
2022-10-07T08:02:24.438Z,17.98
2022-10-07T08:04:56.622Z,18.07
2022-10-07T08:07:28.801Z,18.17
2022-10-07T08:10:00.989Z,18.26
2022-10-07T08:12:34.754Z,18.35
2022-10-07T08:15:07.628Z,18.42
2022-10-07T08:17:39.792Z,18.52
2022-10-07T08:20:13.811Z,18.61
2022-10-07T08:22:46.076Z,18.71
2022-10-07T08:25:18.453Z,18.80
2022-10-07T08:27:50.730Z,18.90
2022-10-07T08:30:24.164Z,18.99
2022-10-07T08:33:01.052Z,19.09
2022-10-07T08:35:33.617Z,19.15
2022-10-07T08:38:05.677Z,19.24
2022-10-07T08:40:38.778Z,19.33
2022-10-07T08:43:13.077Z,19.41
2022-10-07T08:45:45.652Z,19.49
2022-10-07T08:48:21.531Z,19.57
2022-10-07T08:50:59.534Z,19.69
2022-10-07T08:53:34.122Z,19.78
2022-10-07T08:56:11.169Z,19.83
2022-10-07T08:58:54.259Z,19.92
2022-10-07T09:01:36.137Z,20.02
2022-10-07T09:04:18.274Z,20.15
2022-10-07T09:06:54.509Z,20.31
2022-10-07T09:09:29.090Z,20.46
2022-10-07T09:12:02.745Z,20.64
2022-10-07T09:14:38.530Z,20.86
2022-10-07T09:17:15.391Z,21.02
2022-10-07T09:19:50.665Z,21.33
2022-10-07T09:22:24.025Z,21.64
2022-10-07T09:25:01.725Z,21.95
2022-10-07T09:27:33.901Z,22.25
2022-10-07T09:30:06.722Z,22.41
2022-10-07T09:32:41.377Z,22.60
2022-10-07T09:35:17.599Z,22.78
2022-10-07T09:37:59.582Z,23.10
2022-10-07T09:40:37.619Z,23.12
2022-10-07T09:43:18.253Z,22.98
2022-10-07T09:45:50.286Z,22.88
2022-10-07T09:48:25.704Z,22.94
2022-10-07T09:51:15.651Z,22.97
2022-10-07T09:54:02.914Z,23.25
2022-10-07T09:56:38.564Z,23.56
2022-10-07T09:59:24.980Z,23.91
2022-10-07T10:01:58.969Z,24.21
2022-10-07T10:04:34.215Z,24.47
2022-10-07T10:07:08.223Z,24.71
2022-10-07T10:09:40.456Z,24.78
2022-10-07T10:12:17.033Z,24.74
2022-10-07T10:14:52.118Z,24.82
2022-10-07T10:17:28.252Z,25.08
2022-10-07T10:20:39.704Z,25.45
2022-10-07T10:26:44.316Z,25.68
2022-10-07T10:29:44.596Z,25.74
2022-10-07T10:32:43.382Z,25.96
2022-10-07T10:35:19.891Z,26.20
2022-10-07T10:38:02.743Z,26.28
2022-10-07T10:40:38.822Z,26.18
2022-10-07T10:43:26.964Z,26.06
2022-10-07T10:46:23.219Z,26.28
2022-10-07T10:48:58.322Z,26.39
2022-10-07T10:51:49.038Z,26.55
2022-10-07T10:54:28.439Z,26.72
2022-10-07T10:57:09.586Z,26.83
2022-10-07T10:59:56.658Z,27.10
2022-10-07T11:02:45.848Z,27.13
2022-10-07T11:05:22.111Z,26.93
2022-10-07T11:07:57.423Z,26.86
2022-10-07T11:10:34.363Z,26.88
2022-10-07T11:13:19.412Z,26.82
2022-10-07T11:15:57.246Z,26.47
2022-10-07T11:18:33.549Z,26.17
2022-10-07T11:21:09.943Z,26.31
2022-10-07T11:23:53.074Z,26.32
2022-10-07T11:26:32.423Z,26.23
2022-10-07T11:29:16.990Z,26.31
2022-10-07T11:31:48.929Z,26.49
2022-10-07T11:34:23.471Z,26.64
2022-10-07T11:37:03.169Z,26.68
2022-10-07T11:39:35.333Z,26.63
2022-10-07T11:42:13.572Z,26.52
2022-10-07T11:44:52.303Z,26.46
2022-10-07T11:47:27.029Z,26.34
2022-10-07T11:50:04.098Z,26.10
2022-10-07T11:52:40.279Z,25.95
2022-10-07T11:55:17.678Z,25.80
2022-10-07T11:57:54.345Z,25.84
2022-10-07T12:00:28.494Z,26.03
2022-10-07T12:03:14.261Z,26.17
2022-10-07T12:06:00.155Z,26.35
2022-10-07T12:08:34.880Z,26.44
2022-10-07T12:11:44.207Z,26.41
2022-10-07T12:14:41.861Z,26.62
2022-10-07T12:17:28.357Z,26.69
2022-10-07T12:20:34.775Z,26.65
2022-10-07T12:23:40.843Z,26.43
2022-10-07T12:26:43.721Z,26.27
2022-10-07T12:29:48.580Z,26.01
2022-10-07T12:32:48.766Z,25.68
2022-10-07T12:35:53.924Z,25.72
2022-10-07T12:38:29.313Z,25.60
2022-10-07T12:41:21.346Z,25.46
2022-10-07T12:44:00.223Z,25.61
2022-10-07T12:46:35.068Z,25.80
2022-10-07T12:49:14.106Z,25.78
2022-10-07T12:51:46.914Z,25.79
2022-10-07T12:54:21.133Z,25.51
2022-10-07T12:56:53.200Z,25.18
2022-10-07T12:59:50.543Z,24.97
2022-10-07T13:03:11.805Z,25.06
2022-10-07T13:06:14.750Z,25.30
2022-10-07T13:09:31.315Z,25.54
2022-10-07T13:12:36.091Z,25.55
2022-10-07T13:15:19.276Z,25.48
2022-10-07T13:17:55.279Z,25.34
2022-10-07T13:20:42.722Z,25.15
2022-10-07T13:23:26.062Z,24.94
2022-10-07T13:26:01.693Z,24.79
2022-10-07T13:28:40.320Z,24.69
2022-10-07T13:31:19.889Z,24.74
2022-10-07T13:33:52.987Z,24.95
2022-10-07T13:36:27.742Z,25.03
2022-10-07T13:39:14.617Z,24.89
2022-10-07T13:41:48.299Z,24.64
2022-10-07T13:44:22.842Z,24.45
2022-10-07T13:46:58.113Z,24.24
2022-10-07T13:49:34.024Z,24.04
2022-10-07T13:52:08.345Z,24.05
2022-10-07T13:54:40.416Z,24.05
2022-10-07T13:57:16.758Z,23.95
2022-10-07T13:59:53.133Z,23.94
2022-10-07T14:02:25.476Z,23.96
2022-10-07T14:04:59.997Z,24.01
2022-10-07T14:07:32.182Z,24.00
2022-10-07T14:10:11.426Z,23.98
2022-10-07T14:12:46.380Z,23.98
2022-10-07T14:15:20.968Z,23.98
2022-10-07T14:17:54.775Z,23.98
2022-10-07T14:20:28.903Z,23.80
2022-10-07T14:23:02.683Z,23.67
2022-10-07T14:25:50.300Z,23.48
2022-10-07T14:28:28.229Z,23.32
2022-10-07T14:31:36.101Z,23.20
2022-10-07T14:34:34.255Z,23.10
2022-10-07T14:37:11.324Z,23.00
2022-10-07T14:39:47.719Z,22.94
2022-10-07T14:42:21.535Z,22.91
2022-10-07T14:44:55.443Z,22.91
2022-10-07T14:47:28.522Z,22.89
2022-10-07T14:50:01.590Z,22.82
2022-10-07T14:52:40.766Z,22.73
2022-10-07T14:55:18.593Z,22.64
2022-10-07T14:57:50.896Z,22.52
2022-10-07T15:00:21.926Z,22.43
2022-10-07T15:02:54.879Z,22.34
2022-10-07T15:05:27.542Z,22.30
2022-10-07T15:07:59.640Z,22.28
2022-10-07T15:10:32.763Z,22.27
2022-10-07T15:13:08.682Z,22.27
2022-10-07T15:15:45.439Z,22.27
2022-10-07T15:18:17.501Z,22.22
2022-10-07T15:20:57.797Z,22.20
2022-10-07T15:23:30.321Z,22.17
2022-10-07T15:26:03.076Z,22.11
2022-10-07T15:28:35.434Z,22.05
2022-10-07T15:31:06.814Z,22.02
2022-10-07T15:33:39.918Z,21.94
2022-10-07T15:36:13.382Z,21.92
2022-10-07T15:38:45.838Z,21.89
2022-10-07T15:41:29.532Z,21.85
2022-10-07T15:44:03.404Z,21.85
2022-10-07T15:46:36.014Z,21.84
2022-10-07T15:49:08.386Z,21.78
2022-10-07T15:51:40.724Z,21.77
2022-10-07T15:54:12.003Z,21.77
2022-10-07T15:56:45.302Z,21.75
2022-10-07T15:59:17.410Z,21.73
2022-10-07T16:01:51.975Z,21.69
2022-10-07T16:04:24.477Z,21.69
2022-10-07T16:06:56.696Z,21.66
2022-10-07T16:09:29.223Z,21.60
2022-10-07T16:12:01.253Z,21.57
2022-10-07T16:14:34.053Z,21.55
2022-10-07T16:17:06.285Z,21.52
2022-10-07T16:19:38.402Z,21.47
2022-10-07T16:22:09.643Z,21.43
2022-10-07T16:24:42.353Z,21.36
2022-10-07T16:27:14.454Z,21.34
2022-10-07T16:30:04.234Z,21.29
2022-10-07T16:32:36.278Z,21.23
2022-10-07T16:35:09.698Z,21.17
2022-10-07T16:37:41.871Z,21.15
2022-10-07T16:40:14.039Z,21.13
2022-10-07T16:42:46.548Z,21.08
2022-10-07T16:45:19.224Z,21.02
2022-10-07T16:47:51.252Z,20.98
2022-10-07T16:50:23.314Z,20.95
2022-10-07T16:52:55.790Z,20.98
2022-10-07T16:55:27.901Z,21.04
2022-10-07T16:58:00.004Z,21.09
2022-10-07T17:00:32.090Z,21.11
2022-10-07T17:03:04.153Z,21.13
2022-10-07T17:05:37.660Z,21.12
2022-10-07T17:08:09.707Z,21.12
2022-10-07T17:10:44.282Z,21.12
2022-10-07T17:13:18.381Z,21.08
2022-10-07T17:15:52.770Z,21.01
2022-10-07T17:18:26.782Z,20.96
2022-10-07T17:20:59.441Z,20.93
2022-10-07T17:23:36.018Z,20.91
2022-10-07T17:26:08.952Z,20.84
2022-10-07T17:28:41.215Z,20.72
2022-10-07T17:31:14.994Z,20.59
2022-10-07T17:33:47.670Z,20.48
2022-10-07T17:36:21.308Z,20.41
2022-10-07T17:38:53.487Z,20.37
2022-10-07T17:41:27.558Z,20.37
2022-10-07T17:44:00.743Z,20.38
2022-10-07T17:46:34.576Z,20.39
2022-10-07T17:49:07.286Z,20.40
2022-10-07T17:51:42.664Z,20.40
2022-10-07T17:54:16.814Z,20.40
2022-10-07T17:56:49.013Z,20.38
2022-10-07T17:59:21.193Z,20.38
2022-10-07T18:01:53.801Z,20.37
2022-10-07T18:04:26.029Z,20.37
2022-10-07T18:06:58.379Z,20.35
2022-10-07T18:09:28.897Z,20.33
2022-10-07T18:12:18.437Z,20.28
2022-10-07T18:15:07.993Z,20.25
2022-10-07T18:17:40.075Z,20.21
2022-10-07T18:20:15.183Z,20.20
2022-10-07T18:22:47.592Z,20.17
2022-10-07T18:25:19.909Z,20.14
2022-10-07T18:27:50.444Z,20.10
2022-10-07T18:30:23.170Z,20.03
2022-10-07T18:32:55.289Z,20.02
2022-10-07T18:35:27.337Z,20.01
2022-10-07T18:37:59.386Z,19.97
2022-10-07T18:40:31.594Z,19.94
2022-10-07T18:43:03.680Z,19.91
2022-10-07T18:45:35.689Z,19.88
2022-10-07T18:48:08.228Z,19.86
2022-10-07T18:50:40.241Z,19.83
2022-10-07T18:53:12.470Z,19.83
2022-10-07T18:55:44.486Z,19.81
2022-10-07T18:58:16.726Z,19.78
2022-10-07T19:00:48.848Z,19.75
2022-10-07T19:03:21.041Z,19.71
2022-10-07T19:05:53.109Z,19.67
2022-10-07T19:08:25.187Z,19.63
2022-10-07T19:10:57.334Z,19.58
2022-10-07T19:13:46.572Z,19.55
2022-10-07T19:16:19.779Z,19.53
2022-10-07T19:18:54.229Z,19.49
2022-10-07T19:21:26.677Z,19.41
2022-10-07T19:23:58.746Z,19.36
2022-10-07T19:26:32.319Z,19.30
2022-10-07T19:29:05.833Z,19.27
2022-10-07T19:31:40.441Z,19.23
2022-10-07T19:34:14.957Z,19.20
2022-10-07T19:36:47.981Z,19.17
2022-10-07T19:39:22.000Z,19.16
2022-10-07T19:41:57.620Z,19.14
2022-10-07T19:44:30.483Z,19.13
2022-10-07T19:47:03.347Z,19.11
2022-10-07T19:49:37.551Z,19.09
2022-10-07T19:52:09.693Z,19.05
2022-10-07T19:54:45.278Z,19.02
2022-10-07T19:57:17.588Z,19.00
2022-10-07T19:59:49.734Z,18.97
2022-10-07T20:02:21.857Z,18.94
2022-10-07T20:04:54.085Z,18.91
2022-10-07T20:07:26.417Z,18.88
2022-10-07T20:09:58.983Z,18.85
2022-10-07T20:12:32.076Z,18.83
2022-10-07T20:15:04.708Z,18.83
2022-10-07T20:17:37.214Z,18.80
2022-10-07T20:20:08.705Z,18.77
2022-10-07T20:22:42.082Z,18.71
2022-10-07T20:25:15.940Z,18.68
2022-10-07T20:27:49.109Z,18.68
2022-10-07T20:30:22.143Z,18.65
2022-10-07T20:32:54.198Z,18.64
2022-10-07T20:35:28.519Z,18.61
2022-10-07T20:38:03.871Z,18.58
2022-10-07T20:40:53.129Z,18.56
2022-10-07T20:43:25.193Z,18.55
2022-10-07T20:45:57.786Z,18.55
2022-10-07T20:48:32.116Z,18.53
2022-10-07T20:51:08.404Z,18.52
2022-10-07T20:53:40.821Z,18.50
2022-10-07T20:56:13.533Z,18.48
2022-10-07T20:58:46.333Z,18.47
2022-10-07T21:01:18.441Z,18.46
2022-10-07T21:03:50.527Z,18.44
2022-10-07T21:06:22.584Z,18.41
2022-10-07T21:08:57.953Z,18.37
2022-10-07T21:11:30.619Z,18.33
2022-10-07T21:14:03.383Z,18.31
2022-10-07T21:16:36.830Z,18.23
2022-10-07T21:19:10.050Z,18.18
2022-10-07T21:21:43.739Z,18.12
2022-10-07T21:24:16.759Z,17.99
2022-10-07T21:26:49.039Z,17.88
2022-10-07T21:29:20.064Z,17.84
2022-10-07T21:31:53.302Z,17.78
2022-10-07T21:34:26.160Z,17.76
2022-10-07T21:36:59.163Z,17.76
2022-10-07T21:39:32.195Z,17.73
2022-10-07T21:42:04.800Z,17.67
2022-10-07T21:44:38.173Z,17.62
2022-10-07T21:47:10.763Z,17.58
2022-10-07T21:49:42.185Z,17.57
2022-10-07T21:52:15.773Z,17.55
2022-10-07T21:54:49.685Z,17.57
2022-10-07T21:57:23.287Z,17.59
2022-10-07T21:59:56.168Z,17.55
2022-10-07T22:02:30.147Z,17.55
2022-10-07T22:05:03.156Z,17.53
2022-10-07T22:07:53.635Z,17.55
2022-10-07T22:19:46.346Z,17.60
2022-10-07T22:22:18.526Z,17.58
2022-10-07T22:24:50.653Z,17.57
2022-10-07T22:27:24.971Z,17.57
2022-10-07T22:29:57.203Z,17.59
2022-10-07T22:32:29.376Z,17.60
2022-10-07T22:35:19.217Z,17.64
2022-10-07T22:37:51.382Z,17.66
2022-10-07T22:40:23.540Z,17.66
2022-10-07T22:42:55.682Z,17.66
2022-10-07T22:45:27.850Z,17.60
2022-10-07T22:48:00.137Z,17.53
2022-10-07T22:50:32.427Z,17.45
2022-10-07T22:53:04.609Z,17.43
2022-10-07T22:55:37.837Z,17.45
2022-10-07T22:58:10.298Z,17.45
2022-10-07T23:00:42.338Z,17.44
2022-10-07T23:03:14.422Z,17.44
2022-10-07T23:05:50.545Z,17.42
2022-10-07T23:08:22.611Z,17.40
2022-10-07T23:10:59.648Z,17.37
2022-10-07T23:13:32.945Z,17.36
2022-10-07T23:16:06.396Z,17.37
2022-10-07T23:18:38.693Z,17.38
2022-10-07T23:21:13.267Z,17.40
2022-10-07T23:23:46.853Z,17.38
2022-10-07T23:26:20.745Z,17.33
2022-10-07T23:28:53.460Z,17.30
2022-10-07T23:31:27.769Z,17.26
2022-10-07T23:34:01.223Z,17.25
2022-10-07T23:36:34.982Z,17.24
2022-10-07T23:39:07.526Z,17.23
2022-10-07T23:41:39.577Z,17.21
2022-10-07T23:44:12.244Z,17.19
2022-10-07T23:46:44.920Z,17.22
2022-10-07T23:49:17.268Z,17.22
2022-10-07T23:51:49.505Z,17.24
2022-10-07T23:54:21.729Z,17.23
2022-10-07T23:56:53.794Z,17.20
2022-10-07T23:59:25.877Z,17.17
